Terminal Aerodrome Forecast
Issued by NWS

Home | Current Version | Previous Version | Text Only | Print | Product List | Glossary On
Versions: 1 2 3 4 5 6 7 8 9 10 11 12
000
FTUS44 KBMX 282300
TAFMGM
TAF
KMGM 282327Z 2900/2924 VRB05KT P6SM BKN200
     FM290200 00000KT P6SM SCT250
     FM291500 17005KT P6SM SCT050=

USA.gov is the U.S. government's official web portal to all federal, state and local government web resources and services.